sensor_id;sensor_type;location;lat;lon;timestamp;temperature;humidity
62575;DHT22;53112;45.602;11.904;2023-04-29T00:00:07;24.30;47.50
62575;DHT22;53112;45.602;11.904;2023-04-29T00:02:34;24.30;47.50
62575;DHT22;53112;45.602;11.904;2023-04-29T00:05:00;24.30;47.40
62575;DHT22;53112;45.602;11.904;2023-04-29T00:07:30;24.30;47.40
62575;DHT22;53112;45.602;11.904;2023-04-29T00:09:59;24.30;47.10
62575;DHT22;53112;45.602;11.904;2023-04-29T00:12:25;24.30;47.00
62575;DHT22;53112;45.602;11.904;2023-04-29T00:14:51;24.30;47.30
62575;DHT22;53112;45.602;11.904;2023-04-29T00:17:17;24.30;47.50
62575;DHT22;53112;45.602;11.904;2023-04-29T00:19:43;24.30;47.60
62575;DHT22;53112;45.602;11.904;2023-04-29T00:22:10;24.30;47.70
62575;DHT22;53112;45.602;11.904;2023-04-29T00:24:35;24.30;47.70
62575;DHT22;53112;45.602;11.904;2023-04-29T00:27:01;24.30;47.90
62575;DHT22;53112;45.602;11.904;2023-04-29T00:29:28;24.30;48.00
62575;DHT22;53112;45.602;11.904;2023-04-29T00:31:54;24.30;48.00
62575;DHT22;53112;45.602;11.904;2023-04-29T00:34:20;24.30;48.00
62575;DHT22;53112;45.602;11.904;2023-04-29T00:36:46;24.30;48.00
62575;DHT22;53112;45.602;11.904;2023-04-29T00:39:12;24.30;47.90
62575;DHT22;53112;45.602;11.904;2023-04-29T00:41:38;24.30;47.80
62575;DHT22;53112;45.602;11.904;2023-04-29T00:44:04;24.30;47.70
62575;DHT22;53112;45.602;11.904;2023-04-29T00:46:30;24.30;47.70
62575;DHT22;53112;45.602;11.904;2023-04-29T00:48:56;24.30;47.80
62575;DHT22;53112;45.602;11.904;2023-04-29T00:51:22;24.30;47.70
62575;DHT22;53112;45.602;11.904;2023-04-29T00:53:48;24.20;47.90
62575;DHT22;53112;45.602;11.904;2023-04-29T00:56:14;24.20;47.90
62575;DHT22;53112;45.602;11.904;2023-04-29T00:58:43;24.20;47.90
62575;DHT22;53112;45.602;11.904;2023-04-29T01:01:18;24.20;47.70
62575;DHT22;53112;45.602;11.904;2023-04-29T01:03:45;24.20;47.60
62575;DHT22;53112;45.602;11.904;2023-04-29T01:06:22;24.20;47.60
62575;DHT22;53112;45.602;11.904;2023-04-29T01:09:21;24.20;47.70
62575;DHT22;53112;45.602;11.904;2023-04-29T01:14:37;24.20;47.90
62575;DHT22;53112;45.602;11.904;2023-04-29T01:17:10;24.20;47.90
62575;DHT22;53112;45.602;11.904;2023-04-29T01:19:49;24.20;47.80
62575;DHT22;53112;45.602;11.904;2023-04-29T01:22:17;24.30;47.70
62575;DHT22;53112;45.602;11.904;2023-04-29T01:24:44;24.20;47.30
62575;DHT22;53112;45.602;11.904;2023-04-29T01:27:13;24.20;47.40
62575;DHT22;53112;45.602;11.904;2023-04-29T01:39:02;24.20;47.50
62575;DHT22;53112;45.602;11.904;2023-04-29T01:44:02;24.10;47.50
62575;DHT22;53112;45.602;11.904;2023-04-29T01:46:30;24.20;47.40
62575;DHT22;53112;45.602;11.904;2023-04-29T01:48:55;24.10;47.40
62575;DHT22;53112;45.602;11.904;2023-04-29T01:51:21;24.10;47.60
62575;DHT22;53112;45.602;11.904;2023-04-29T01:53:47;24.10;47.60
62575;DHT22;53112;45.602;11.904;2023-04-29T01:56:13;24.20;47.50
62575;DHT22;53112;45.602;11.904;2023-04-29T01:58:39;24.10;47.50
62575;DHT22;53112;45.602;11.904;2023-04-29T02:01:06;24.10;47.60
62575;DHT22;53112;45.602;11.904;2023-04-29T02:03:31;24.10;47.60
62575;DHT22;53112;45.602;11.904;2023-04-29T02:05:57;24.10;47.60
62575;DHT22;53112;45.602;11.904;2023-04-29T02:08:26;24.10;47.60
62575;DHT22;53112;45.602;11.904;2023-04-29T02:10:56;24.10;47.60
62575;DHT22;53112;45.602;11.904;2023-04-29T02:13:22;24.10;47.60
62575;DHT22;53112;45.602;11.904;2023-04-29T02:15:48;24.10;47.70
62575;DHT22;53112;45.602;11.904;2023-04-29T02:18:14;24.10;47.60
62575;DHT22;53112;45.602;11.904;2023-04-29T02:20:41;24.10;47.60
62575;DHT22;53112;45.602;11.904;2023-04-29T02:23:07;24.10;47.40
62575;DHT22;53112;45.602;11.904;2023-04-29T02:25:33;24.10;47.50
62575;DHT22;53112;45.602;11.904;2023-04-29T02:27:58;24.10;47.60
62575;DHT22;53112;45.602;11.904;2023-04-29T02:30:24;24.10;47.70
62575;DHT22;53112;45.602;11.904;2023-04-29T02:32:50;24.10;47.70
62575;DHT22;53112;45.602;11.904;2023-04-29T02:35:17;24.10;47.70
62575;DHT22;53112;45.602;11.904;2023-04-29T02:37:44;24.10;47.50
62575;DHT22;53112;45.602;11.904;2023-04-29T02:40:10;24.10;47.50
62575;DHT22;53112;45.602;11.904;2023-04-29T02:42:36;24.10;47.50
62575;DHT22;53112;45.602;11.904;2023-04-29T02:45:02;24.10;47.60
62575;DHT22;53112;45.602;11.904;2023-04-29T02:47:29;24.10;47.50
62575;DHT22;53112;45.602;11.904;2023-04-29T02:49:54;24.10;47.50
62575;DHT22;53112;45.602;11.904;2023-04-29T02:52:20;24.10;47.30
62575;DHT22;53112;45.602;11.904;2023-04-29T02:54:46;24.10;47.50
62575;DHT22;53112;45.602;11.904;2023-04-29T02:57:12;24.10;47.50
62575;DHT22;53112;45.602;11.904;2023-04-29T02:59:38;24.10;47.50
62575;DHT22;53112;45.602;11.904;2023-04-29T03:02:04;24.10;47.60
62575;DHT22;53112;45.602;11.904;2023-04-29T03:04:30;24.10;47.60
62575;DHT22;53112;45.602;11.904;2023-04-29T03:06:56;24.10;47.60
62575;DHT22;53112;45.602;11.904;2023-04-29T03:09:22;24.10;47.60
62575;DHT22;53112;45.602;11.904;2023-04-29T03:11:48;24.00;47.60
62575;DHT22;53112;45.602;11.904;2023-04-29T03:14:14;24.10;47.50
62575;DHT22;53112;45.602;11.904;2023-04-29T03:16:40;24.10;47.30
62575;DHT22;53112;45.602;11.904;2023-04-29T03:19:07;24.10;47.20
62575;DHT22;53112;45.602;11.904;2023-04-29T03:21:33;24.10;47.30
62575;DHT22;53112;45.602;11.904;2023-04-29T03:23:59;24.10;47.40
62575;DHT22;53112;45.602;11.904;2023-04-29T03:26:25;24.00;47.20
62575;DHT22;53112;45.602;11.904;2023-04-29T03:28:51;24.10;47.20
62575;DHT22;53112;45.602;11.904;2023-04-29T03:31:17;24.00;47.20
62575;DHT22;53112;45.602;11.904;2023-04-29T03:33:45;24.00;47.30
62575;DHT22;53112;45.602;11.904;2023-04-29T03:36:10;24.00;47.40
62575;DHT22;53112;45.602;11.904;2023-04-29T03:38:37;24.00;47.40
62575;DHT22;53112;45.602;11.904;2023-04-29T03:41:02;24.00;47.60
62575;DHT22;53112;45.602;11.904;2023-04-29T03:43:29;24.00;47.70
62575;DHT22;53112;45.602;11.904;2023-04-29T03:45:55;24.00;47.80
62575;DHT22;53112;45.602;11.904;2023-04-29T03:48:21;24.00;47.90
62575;DHT22;53112;45.602;11.904;2023-04-29T03:50:47;24.00;47.90
62575;DHT22;53112;45.602;11.904;2023-04-29T03:53:13;24.00;47.80
62575;DHT22;53112;45.602;11.904;2023-04-29T03:55:39;24.00;47.90
62575;DHT22;53112;45.602;11.904;2023-04-29T03:58:05;24.00;48.00
62575;DHT22;53112;45.602;11.904;2023-04-29T04:00:31;24.00;47.90
62575;DHT22;53112;45.602;11.904;2023-04-29T04:02:58;24.00;47.70
62575;DHT22;53112;45.602;11.904;2023-04-29T04:05:24;24.00;47.70
62575;DHT22;53112;45.602;11.904;2023-04-29T04:07:51;24.00;47.90
62575;DHT22;53112;45.602;11.904;2023-04-29T04:10:17;24.00;47.90
62575;DHT22;53112;45.602;11.904;2023-04-29T04:12:44;24.00;47.80
62575;DHT22;53112;45.602;11.904;2023-04-29T04:15:10;24.00;47.80
62575;DHT22;53112;45.602;11.904;2023-04-29T04:17:36;24.00;47.90
62575;DHT22;53112;45.602;11.904;2023-04-29T04:20:02;24.00;47.90
62575;DHT22;53112;45.602;11.904;2023-04-29T04:22:28;24.00;47.80
62575;DHT22;53112;45.602;11.904;2023-04-29T04:24:54;24.00;47.80
62575;DHT22;53112;45.602;11.904;2023-04-29T04:27:20;24.00;47.60
62575;DHT22;53112;45.602;11.904;2023-04-29T04:29:46;24.00;47.70
62575;DHT22;53112;45.602;11.904;2023-04-29T04:32:12;24.00;47.80
62575;DHT22;53112;45.602;11.904;2023-04-29T04:34:38;23.90;47.70
62575;DHT22;53112;45.602;11.904;2023-04-29T04:37:04;23.90;47.60
62575;DHT22;53112;45.602;11.904;2023-04-29T04:39:31;23.90;47.70
62575;DHT22;53112;45.602;11.904;2023-04-29T04:41:57;24.00;47.50
62575;DHT22;53112;45.602;11.904;2023-04-29T04:44:23;24.00;47.40
62575;DHT22;53112;45.602;11.904;2023-04-29T04:46:50;23.90;47.40
62575;DHT22;53112;45.602;11.904;2023-04-29T04:49:17;24.00;47.50
62575;DHT22;53112;45.602;11.904;2023-04-29T04:51:43;23.90;47.50
62575;DHT22;53112;45.602;11.904;2023-04-29T04:54:10;23.90;47.50
62575;DHT22;53112;45.602;11.904;2023-04-29T04:56:36;23.90;47.60
62575;DHT22;53112;45.602;11.904;2023-04-29T04:59:03;23.90;47.60
62575;DHT22;53112;45.602;11.904;2023-04-29T05:01:29;23.90;47.60
62575;DHT22;53112;45.602;11.904;2023-04-29T05:03:55;23.90;47.60
62575;DHT22;53112;45.602;11.904;2023-04-29T05:06:22;23.90;47.50
62575;DHT22;53112;45.602;11.904;2023-04-29T05:08:48;23.90;47.50
62575;DHT22;53112;45.602;11.904;2023-04-29T05:11:17;23.90;47.30
62575;DHT22;53112;45.602;11.904;2023-04-29T05:13:43;23.90;47.30
62575;DHT22;53112;45.602;11.904;2023-04-29T05:16:09;23.90;47.40
62575;DHT22;53112;45.602;11.904;2023-04-29T05:18:35;23.90;47.40
62575;DHT22;53112;45.602;11.904;2023-04-29T05:21:01;23.90;47.50
62575;DHT22;53112;45.602;11.904;2023-04-29T05:23:27;23.90;47.50
62575;DHT22;53112;45.602;11.904;2023-04-29T05:25:53;23.90;47.40
62575;DHT22;53112;45.602;11.904;2023-04-29T05:28:19;23.90;47.40
62575;DHT22;53112;45.602;11.904;2023-04-29T05:30:45;23.90;47.50
62575;DHT22;53112;45.602;11.904;2023-04-29T05:33:10;23.90;47.60
62575;DHT22;53112;45.602;11.904;2023-04-29T05:35:37;24.00;47.60
62575;DHT22;53112;45.602;11.904;2023-04-29T05:38:03;24.00;47.70
62575;DHT22;53112;45.602;11.904;2023-04-29T05:40:28;24.00;47.70
62575;DHT22;53112;45.602;11.904;2023-04-29T05:42:54;24.00;47.70
62575;DHT22;53112;45.602;11.904;2023-04-29T05:45:20;24.00;47.70
62575;DHT22;53112;45.602;11.904;2023-04-29T05:47:46;24.00;47.70
62575;DHT22;53112;45.602;11.904;2023-04-29T05:50:12;24.00;47.70
62575;DHT22;53112;45.602;11.904;2023-04-29T05:52:38;24.00;47.80
62575;DHT22;53112;45.602;11.904;2023-04-29T05:55:04;24.00;47.80
62575;DHT22;53112;45.602;11.904;2023-04-29T05:57:30;24.10;48.00
62575;DHT22;53112;45.602;11.904;2023-04-29T05:59:56;24.10;47.90
62575;DHT22;53112;45.602;11.904;2023-04-29T06:02:25;24.00;48.00
62575;DHT22;53112;45.602;11.904;2023-04-29T06:04:51;24.10;48.00
62575;DHT22;53112;45.602;11.904;2023-04-29T06:07:17;24.10;47.90
62575;DHT22;53112;45.602;11.904;2023-04-29T06:09:43;24.10;47.80
62575;DHT22;53112;45.602;11.904;2023-04-29T06:12:09;24.10;47.70
62575;DHT22;53112;45.602;11.904;2023-04-29T06:14:35;24.10;47.70
62575;DHT22;53112;45.602;11.904;2023-04-29T06:17:01;24.10;47.60
62575;DHT22;53112;45.602;11.904;2023-04-29T06:19:28;24.10;47.70
62575;DHT22;53112;45.602;11.904;2023-04-29T06:21:54;24.10;47.80
62575;DHT22;53112;45.602;11.904;2023-04-29T06:24:20;24.10;47.70
62575;DHT22;53112;45.602;11.904;2023-04-29T06:26:46;24.10;47.60
62575;DHT22;53112;45.602;11.904;2023-04-29T06:29:13;24.10;47.50
62575;DHT22;53112;45.602;11.904;2023-04-29T06:31:39;24.10;47.60
62575;DHT22;53112;45.602;11.904;2023-04-29T06:34:05;24.10;47.50
62575;DHT22;53112;45.602;11.904;2023-04-29T06:36:31;24.10;47.50
62575;DHT22;53112;45.602;11.904;2023-04-29T06:38:57;24.10;47.50
62575;DHT22;53112;45.602;11.904;2023-04-29T06:41:23;24.10;47.70
62575;DHT22;53112;45.602;11.904;2023-04-29T06:43:50;24.10;47.60
62575;DHT22;53112;45.602;11.904;2023-04-29T06:46:16;24.10;47.40
62575;DHT22;53112;45.602;11.904;2023-04-29T06:48:42;24.10;47.30
62575;DHT22;53112;45.602;11.904;2023-04-29T06:51:08;24.10;47.30
62575;DHT22;53112;45.602;11.904;2023-04-29T06:53:34;24.10;47.30
62575;DHT22;53112;45.602;11.904;2023-04-29T06:56:00;24.10;47.50
62575;DHT22;53112;45.602;11.904;2023-04-29T06:58:26;24.10;47.60
62575;DHT22;53112;45.602;11.904;2023-04-29T07:00:52;24.10;47.50
62575;DHT22;53112;45.602;11.904;2023-04-29T07:03:18;24.20;47.40
62575;DHT22;53112;45.602;11.904;2023-04-29T07:05:44;24.20;47.40
62575;DHT22;53112;45.602;11.904;2023-04-29T07:08:11;24.20;47.30
62575;DHT22;53112;45.602;11.904;2023-04-29T07:10:37;24.20;47.00
62575;DHT22;53112;45.602;11.904;2023-04-29T07:13:04;24.20;46.90
62575;DHT22;53112;45.602;11.904;2023-04-29T07:15:33;24.20;46.80
62575;DHT22;53112;45.602;11.904;2023-04-29T07:17:59;24.30;47.00
62575;DHT22;53112;45.602;11.904;2023-04-29T07:20:25;24.30;46.90
62575;DHT22;53112;45.602;11.904;2023-04-29T07:22:54;24.30;46.70
62575;DHT22;53112;45.602;11.904;2023-04-29T07:25:20;24.30;46.90
62575;DHT22;53112;45.602;11.904;2023-04-29T07:27:46;24.40;46.60
62575;DHT22;53112;45.602;11.904;2023-04-29T07:30:12;24.40;46.60
62575;DHT22;53112;45.602;11.904;2023-04-29T07:32:38;24.40;46.40
62575;DHT22;53112;45.602;11.904;2023-04-29T07:35:05;24.40;46.40
62575;DHT22;53112;45.602;11.904;2023-04-29T07:40:00;24.50;46.40
62575;DHT22;53112;45.602;11.904;2023-04-29T07:42:26;24.50;46.50
62575;DHT22;53112;45.602;11.904;2023-04-29T07:44:52;24.50;46.50
62575;DHT22;53112;45.602;11.904;2023-04-29T07:47:18;24.50;46.10
62575;DHT22;53112;45.602;11.904;2023-04-29T07:49:44;24.50;46.30
62575;DHT22;53112;45.602;11.904;2023-04-29T07:52:10;24.50;46.20
62575;DHT22;53112;45.602;11.904;2023-04-29T07:54:36;24.60;46.00
62575;DHT22;53112;45.602;11.904;2023-04-29T07:57:03;24.60;45.80
62575;DHT22;53112;45.602;11.904;2023-04-29T07:59:32;24.60;46.30
62575;DHT22;53112;45.602;11.904;2023-04-29T08:01:58;24.60;46.50
62575;DHT22;53112;45.602;11.904;2023-04-29T08:04:24;24.60;46.10
62575;DHT22;53112;45.602;11.904;2023-04-29T08:06:50;24.60;46.30
62575;DHT22;53112;45.602;11.904;2023-04-29T08:09:16;24.70;46.30
62575;DHT22;53112;45.602;11.904;2023-04-29T08:11:42;24.70;46.40
62575;DHT22;53112;45.602;11.904;2023-04-29T08:14:09;24.70;45.80
62575;DHT22;53112;45.602;11.904;2023-04-29T08:16:35;24.70;45.70
62575;DHT22;53112;45.602;11.904;2023-04-29T08:19:01;24.70;46.00
62575;DHT22;53112;45.602;11.904;2023-04-29T08:21:27;24.70;45.60
62575;DHT22;53112;45.602;11.904;2023-04-29T08:23:53;24.70;45.70
62575;DHT22;53112;45.602;11.904;2023-04-29T08:26:20;24.70;45.80
62575;DHT22;53112;45.602;11.904;2023-04-29T08:28:47;24.60;45.60
62575;DHT22;53112;45.602;11.904;2023-04-29T08:31:17;24.70;45.60
62575;DHT22;53112;45.602;11.904;2023-04-29T08:33:43;24.70;45.70
62575;DHT22;53112;45.602;11.904;2023-04-29T08:36:09;24.70;45.70
62575;DHT22;53112;45.602;11.904;2023-04-29T08:38:35;24.70;46.30
62575;DHT22;53112;45.602;11.904;2023-04-29T08:41:00;24.70;46.30
62575;DHT22;53112;45.602;11.904;2023-04-29T08:43:26;24.70;46.10
62575;DHT22;53112;45.602;11.904;2023-04-29T08:45:53;24.80;45.50
62575;DHT22;53112;45.602;11.904;2023-04-29T08:48:20;24.80;46.00
62575;DHT22;53112;45.602;11.904;2023-04-29T08:50:46;24.80;45.60
62575;DHT22;53112;45.602;11.904;2023-04-29T08:53:13;24.80;45.50
62575;DHT22;53112;45.602;11.904;2023-04-29T08:55:46;24.80;45.30
62575;DHT22;53112;45.602;11.904;2023-04-29T08:58:14;24.90;44.90
62575;DHT22;53112;45.602;11.904;2023-04-29T09:00:41;24.90;45.70
62575;DHT22;53112;45.602;11.904;2023-04-29T09:03:21;24.90;45.80
62575;DHT22;53112;45.602;11.904;2023-04-29T09:05:53;25.00;45.50
62575;DHT22;53112;45.602;11.904;2023-04-29T09:08:22;24.90;45.70
62575;DHT22;53112;45.602;11.904;2023-04-29T09:10:50;24.90;45.80
62575;DHT22;53112;45.602;11.904;2023-04-29T09:13:27;24.90;46.00
62575;DHT22;53112;45.602;11.904;2023-04-29T09:15:53;24.90;46.10
62575;DHT22;53112;45.602;11.904;2023-04-29T09:18:44;24.90;46.10
62575;DHT22;53112;45.602;11.904;2023-04-29T09:23:51;24.90;46.10
62575;DHT22;53112;45.602;11.904;2023-04-29T09:26:17;24.90;46.10
62575;DHT22;53112;45.602;11.904;2023-04-29T09:28:44;24.90;46.10
62575;DHT22;53112;45.602;11.904;2023-04-29T09:31:12;24.90;45.80
62575;DHT22;53112;45.602;11.904;2023-04-29T09:33:55;24.90;45.70
62575;DHT22;53112;45.602;11.904;2023-04-29T09:36:44;24.90;45.80
62575;DHT22;53112;45.602;11.904;2023-04-29T09:39:15;24.90;45.30
62575;DHT22;53112;45.602;11.904;2023-04-29T09:44:22;24.90;45.90
62575;DHT22;53112;45.602;11.904;2023-04-29T09:47:07;25.00;46.00
62575;DHT22;53112;45.602;11.904;2023-04-29T09:49:35;24.90;45.80
62575;DHT22;53112;45.602;11.904;2023-04-29T09:52:04;24.90;45.60
62575;DHT22;53112;45.602;11.904;2023-04-29T09:54:32;24.90;45.30
62575;DHT22;53112;45.602;11.904;2023-04-29T09:56:59;24.90;45.10
62575;DHT22;53112;45.602;11.904;2023-04-29T09:59:26;24.90;45.30
62575;DHT22;53112;45.602;11.904;2023-04-29T10:01:54;24.90;45.00
62575;DHT22;53112;45.602;11.904;2023-04-29T10:04:22;25.00;44.80
62575;DHT22;53112;45.602;11.904;2023-04-29T10:06:50;25.00;44.70
62575;DHT22;53112;45.602;11.904;2023-04-29T10:09:22;24.90;44.90
62575;DHT22;53112;45.602;11.904;2023-04-29T10:11:50;24.90;45.00
62575;DHT22;53112;45.602;11.904;2023-04-29T10:14:19;24.90;44.60
62575;DHT22;53112;45.602;11.904;2023-04-29T10:17:17;24.90;44.80
62575;DHT22;53112;45.602;11.904;2023-04-29T10:22:21;24.90;44.80
62575;DHT22;53112;45.602;11.904;2023-04-29T10:24:52;25.00;45.20
62575;DHT22;53112;45.602;11.904;2023-04-29T10:27:20;25.00;45.40
62575;DHT22;53112;45.602;11.904;2023-04-29T10:29:49;25.00;45.10
62575;DHT22;53112;45.602;11.904;2023-04-29T10:32:16;25.00;45.40
62575;DHT22;53112;45.602;11.904;2023-04-29T10:34:43;25.00;45.10
62575;DHT22;53112;45.602;11.904;2023-04-29T10:37:10;25.10;45.30
62575;DHT22;53112;45.602;11.904;2023-04-29T10:42:47;25.10;44.60
62575;DHT22;53112;45.602;11.904;2023-04-29T10:45:26;25.10;45.10
62575;DHT22;53112;45.602;11.904;2023-04-29T10:53:04;25.10;44.80
62575;DHT22;53112;45.602;11.904;2023-04-29T10:55:31;25.10;44.60
62575;DHT22;53112;45.602;11.904;2023-04-29T10:58:03;25.10;44.90
62575;DHT22;53112;45.602;11.904;2023-04-29T11:00:31;25.10;44.70
62575;DHT22;53112;45.602;11.904;2023-04-29T11:02:58;25.10;45.00
62575;DHT22;53112;45.602;11.904;2023-04-29T11:05:34;25.10;45.10
62575;DHT22;53112;45.602;11.904;2023-04-29T11:08:13;25.10;45.80
62575;DHT22;53112;45.602;11.904;2023-04-29T11:10:49;25.20;46.00
62575;DHT22;53112;45.602;11.904;2023-04-29T11:15:47;25.20;44.50
62575;DHT22;53112;45.602;11.904;2023-04-29T11:18:13;25.10;44.80
62575;DHT22;53112;45.602;11.904;2023-04-29T11:23:34;25.20;45.80
62575;DHT22;53112;45.602;11.904;2023-04-29T11:26:00;25.20;45.80
62575;DHT22;53112;45.602;11.904;2023-04-29T11:28:27;25.20;45.90
62575;DHT22;53112;45.602;11.904;2023-04-29T11:30:56;25.20;45.90
62575;DHT22;53112;45.602;11.904;2023-04-29T11:33:25;25.30;46.00
62575;DHT22;53112;45.602;11.904;2023-04-29T11:35:54;25.30;46.00
62575;DHT22;53112;45.602;11.904;2023-04-29T11:38:27;25.30;45.50
62575;DHT22;53112;45.602;11.904;2023-04-29T11:40:58;25.30;45.20
62575;DHT22;53112;45.602;11.904;2023-04-29T11:43:24;25.30;45.10
62575;DHT22;53112;45.602;11.904;2023-04-29T11:45:52;25.30;44.70
62575;DHT22;53112;45.602;11.904;2023-04-29T11:48:19;25.30;44.80
62575;DHT22;53112;45.602;11.904;2023-04-29T11:50:46;25.30;45.10
62575;DHT22;53112;45.602;11.904;2023-04-29T11:53:13;25.30;45.60
62575;DHT22;53112;45.602;11.904;2023-04-29T11:55:44;25.30;45.60
62575;DHT22;53112;45.602;11.904;2023-04-29T11:58:10;25.30;45.40
62575;DHT22;53112;45.602;11.904;2023-04-29T12:00:37;25.30;44.90
62575;DHT22;53112;45.602;11.904;2023-04-29T12:03:30;25.30;45.00
62575;DHT22;53112;45.602;11.904;2023-04-29T12:05:56;25.30;44.60
62575;DHT22;53112;45.602;11.904;2023-04-29T12:08:27;25.30;45.10
62575;DHT22;53112;45.602;11.904;2023-04-29T12:10:57;25.30;45.40
62575;DHT22;53112;45.602;11.904;2023-04-29T12:13:26;25.30;45.50
62575;DHT22;53112;45.602;11.904;2023-04-29T12:15:53;25.30;45.00
62575;DHT22;53112;45.602;11.904;2023-04-29T12:18:19;25.30;45.10
62575;DHT22;53112;45.602;11.904;2023-04-29T12:20:48;25.40;44.90
62575;DHT22;53112;45.602;11.904;2023-04-29T12:23:19;25.30;44.80
62575;DHT22;53112;45.602;11.904;2023-04-29T12:25:54;25.40;45.10
62575;DHT22;53112;45.602;11.904;2023-04-29T12:28:20;25.40;45.30
62575;DHT22;53112;45.602;11.904;2023-04-29T12:30:46;25.40;45.40
62575;DHT22;53112;45.602;11.904;2023-04-29T12:33:26;25.30;44.90
62575;DHT22;53112;45.602;11.904;2023-04-29T12:35:54;25.40;44.20
62575;DHT22;53112;45.602;11.904;2023-04-29T12:38:34;25.40;45.10
62575;DHT22;53112;45.602;11.904;2023-04-29T12:41:01;25.40;44.70
62575;DHT22;53112;45.602;11.904;2023-04-29T12:43:31;25.40;45.20
62575;DHT22;53112;45.602;11.904;2023-04-29T12:46:07;25.40;45.30
62575;DHT22;53112;45.602;11.904;2023-04-29T12:48:35;25.30;45.10
62575;DHT22;53112;45.602;11.904;2023-04-29T12:51:03;25.40;45.10
62575;DHT22;53112;45.602;11.904;2023-04-29T12:53:30;25.40;44.90
62575;DHT22;53112;45.602;11.904;2023-04-29T12:55:56;25.40;45.00
62575;DHT22;53112;45.602;11.904;2023-04-29T12:58:22;25.40;45.20
62575;DHT22;53112;45.602;11.904;2023-04-29T13:00:48;25.30;45.30
62575;DHT22;53112;45.602;11.904;2023-04-29T13:03:14;25.40;44.90
62575;DHT22;53112;45.602;11.904;2023-04-29T13:05:40;25.40;45.00
62575;DHT22;53112;45.602;11.904;2023-04-29T13:08:06;25.30;45.10
62575;DHT22;53112;45.602;11.904;2023-04-29T13:10:33;25.30;45.20
62575;DHT22;53112;45.602;11.904;2023-04-29T13:13:00;25.40;45.20
62575;DHT22;53112;45.602;11.904;2023-04-29T13:15:26;25.40;45.00
62575;DHT22;53112;45.602;11.904;2023-04-29T13:17:52;25.30;45.20
62575;DHT22;53112;45.602;11.904;2023-04-29T13:20:18;25.30;45.30
62575;DHT22;53112;45.602;11.904;2023-04-29T13:22:45;25.40;45.10
62575;DHT22;53112;45.602;11.904;2023-04-29T13:25:11;25.40;45.50
62575;DHT22;53112;45.602;11.904;2023-04-29T13:27:37;25.40;45.50
62575;DHT22;53112;45.602;11.904;2023-04-29T13:30:07;25.30;45.30
62575;DHT22;53112;45.602;11.904;2023-04-29T13:32:33;25.40;45.60
62575;DHT22;53112;45.602;11.904;2023-04-29T13:34:59;25.40;45.50
62575;DHT22;53112;45.602;11.904;2023-04-29T13:37:25;25.40;45.10
62575;DHT22;53112;45.602;11.904;2023-04-29T13:39:51;25.40;45.20
62575;DHT22;53112;45.602;11.904;2023-04-29T13:42:17;25.40;45.40
62575;DHT22;53112;45.602;11.904;2023-04-29T13:44:43;25.40;45.60
62575;DHT22;53112;45.602;11.904;2023-04-29T13:47:12;25.40;45.70
62575;DHT22;53112;45.602;11.904;2023-04-29T13:49:39;25.40;45.80
62575;DHT22;53112;45.602;11.904;2023-04-29T13:52:06;25.40;45.90
62575;DHT22;53112;45.602;11.904;2023-04-29T13:54:33;25.40;45.90
62575;DHT22;53112;45.602;11.904;2023-04-29T13:56:59;25.40;45.60
62575;DHT22;53112;45.602;11.904;2023-04-29T13:59:32;25.40;45.50
62575;DHT22;53112;45.602;11.904;2023-04-29T14:01:58;25.40;45.60
62575;DHT22;53112;45.602;11.904;2023-04-29T14:04:25;25.40;45.30
62575;DHT22;53112;45.602;11.904;2023-04-29T14:06:51;25.40;45.20
62575;DHT22;53112;45.602;11.904;2023-04-29T14:09:23;25.40;45.40
62575;DHT22;53112;45.602;11.904;2023-04-29T14:11:49;25.40;45.10
62575;DHT22;53112;45.602;11.904;2023-04-29T14:14:16;25.40;45.60
62575;DHT22;53112;45.602;11.904;2023-04-29T14:16:42;25.40;45.70
62575;DHT22;53112;45.602;11.904;2023-04-29T14:19:08;25.40;45.60
62575;DHT22;53112;45.602;11.904;2023-04-29T14:21:34;25.40;45.70
62575;DHT22;53112;45.602;11.904;2023-04-29T14:24:01;25.50;45.70
62575;DHT22;53112;45.602;11.904;2023-04-29T14:26:28;25.50;45.10
62575;DHT22;53112;45.602;11.904;2023-04-29T14:28:54;25.40;45.00
62575;DHT22;53112;45.602;11.904;2023-04-29T14:31:28;25.50;45.10
62575;DHT22;53112;45.602;11.904;2023-04-29T14:33:54;25.50;45.00
62575;DHT22;53112;45.602;11.904;2023-04-29T14:36:21;25.50;45.30
62575;DHT22;53112;45.602;11.904;2023-04-29T14:38:47;25.50;45.40
62575;DHT22;53112;45.602;11.904;2023-04-29T14:41:13;25.50;45.30
62575;DHT22;53112;45.602;11.904;2023-04-29T14:43:39;25.50;45.30
62575;DHT22;53112;45.602;11.904;2023-04-29T14:46:06;25.50;45.20
62575;DHT22;53112;45.602;11.904;2023-04-29T14:48:32;25.50;45.20
62575;DHT22;53112;45.602;11.904;2023-04-29T14:50:58;25.50;45.40
62575;DHT22;53112;45.602;11.904;2023-04-29T14:53:24;25.50;45.60
62575;DHT22;53112;45.602;11.904;2023-04-29T14:55:50;25.50;45.50
62575;DHT22;53112;45.602;11.904;2023-04-29T14:58:16;25.50;45.40
62575;DHT22;53112;45.602;11.904;2023-04-29T15:00:42;25.50;45.40
62575;DHT22;53112;45.602;11.904;2023-04-29T15:03:09;25.50;45.50
62575;DHT22;53112;45.602;11.904;2023-04-29T15:05:35;25.50;45.40
62575;DHT22;53112;45.602;11.904;2023-04-29T15:08:01;25.50;45.50
62575;DHT22;53112;45.602;11.904;2023-04-29T15:10:28;25.60;45.40
62575;DHT22;53112;45.602;11.904;2023-04-29T15:12:54;25.50;45.30
62575;DHT22;53112;45.602;11.904;2023-04-29T15:15:21;25.50;45.50
62575;DHT22;53112;45.602;11.904;2023-04-29T15:17:47;25.50;45.50
62575;DHT22;53112;45.602;11.904;2023-04-29T15:20:13;25.50;45.30
62575;DHT22;53112;45.602;11.904;2023-04-29T15:22:39;25.50;45.70
62575;DHT22;53112;45.602;11.904;2023-04-29T15:25:06;25.60;45.80
62575;DHT22;53112;45.602;11.904;2023-04-29T15:27:33;25.50;45.90
62575;DHT22;53112;45.602;11.904;2023-04-29T15:29:59;25.50;45.80
62575;DHT22;53112;45.602;11.904;2023-04-29T15:32:25;25.50;45.80
62575;DHT22;53112;45.602;11.904;2023-04-29T15:34:59;25.50;45.70
62575;DHT22;53112;45.602;11.904;2023-04-29T15:37:28;25.50;45.80
62575;DHT22;53112;45.602;11.904;2023-04-29T15:39:57;25.50;45.90
62575;DHT22;53112;45.602;11.904;2023-04-29T15:42:23;25.40;45.90
62575;DHT22;53112;45.602;11.904;2023-04-29T15:44:49;25.40;45.80
62575;DHT22;53112;45.602;11.904;2023-04-29T15:47:15;25.40;45.90
62575;DHT22;53112;45.602;11.904;2023-04-29T15:49:41;25.40;45.90
62575;DHT22;53112;45.602;11.904;2023-04-29T15:52:08;25.40;46.00
62575;DHT22;53112;45.602;11.904;2023-04-29T15:54:34;25.40;46.10